createdAt,value
2022-11-19T00:00:14.994Z,39.34
2022-11-19T00:02:43.467Z,39.15
2022-11-19T00:05:11.955Z,39.51
2022-11-19T00:07:41.974Z,39.35
2022-11-19T00:10:11.153Z,39.67
2022-11-19T00:12:56.552Z,40.08
2022-11-19T00:15:25.257Z,39.92
2022-11-19T00:17:53.732Z,39.95
2022-11-19T00:20:22.155Z,39.82
2022-11-19T00:22:54.155Z,39.97
2022-11-19T00:25:23.628Z,39.53
2022-11-19T00:27:52.642Z,39.57
2022-11-19T00:30:46.395Z,39.30
2022-11-19T00:33:09.790Z,39.51
2022-11-19T00:35:38.285Z,39.64
2022-11-19T00:38:08.212Z,40.11
2022-11-19T00:40:36.677Z,39.81
2022-11-19T00:43:23.018Z,39.80
2022-11-19T00:45:51.546Z,39.78
2022-11-19T00:48:20.098Z,39.64
2022-11-19T00:50:48.602Z,39.75
2022-11-19T00:53:18.589Z,39.84
2022-11-19T00:55:47.168Z,39.99
2022-11-19T00:58:16.087Z,39.72
2022-11-19T01:00:44.589Z,39.82
2022-11-19T01:03:13.327Z,39.73
2022-11-19T01:05:41.864Z,39.91
2022-11-19T01:08:10.973Z,39.54
2022-11-19T01:10:40.884Z,39.79
2022-11-19T01:13:27.086Z,39.87
2022-11-19T01:15:55.672Z,39.58
2022-11-19T01:18:24.208Z,39.56
2022-11-19T01:20:52.821Z,39.63
2022-11-19T01:23:21.409Z,39.53
2022-11-19T01:25:51.410Z,39.61
2022-11-19T01:28:20.146Z,39.46
2022-11-19T01:30:48.789Z,39.49
2022-11-19T01:33:17.476Z,39.30
2022-11-19T01:35:46.085Z,39.22
2022-11-19T01:38:17.967Z,39.14
2022-11-19T01:40:46.712Z,39.23
2022-11-19T01:43:16.807Z,39.11
2022-11-19T01:45:48.284Z,39.23
2022-11-19T01:48:19.921Z,39.13
2022-11-19T01:50:50.888Z,39.08
2022-11-19T01:53:20.029Z,39.15
2022-11-19T01:55:48.576Z,39.07
2022-11-19T01:58:21.270Z,39.05
2022-11-19T02:00:49.701Z,39.04
2022-11-19T02:03:18.948Z,39.10
2022-11-19T02:05:47.484Z,38.99
2022-11-19T02:08:39.026Z,39.05
2022-11-19T02:11:42.241Z,38.95
2022-11-19T02:14:23.496Z,38.96
2022-11-19T02:16:56.535Z,38.91
2022-11-19T02:19:42.890Z,38.98
2022-11-19T02:22:20.194Z,39.00
2022-11-19T02:24:53.002Z,38.97
2022-11-19T02:28:16.388Z,38.96
2022-11-19T02:30:48.901Z,38.97
2022-11-19T02:33:19.773Z,39.11
2022-11-19T02:35:51.340Z,38.93
2022-11-19T02:38:28.947Z,38.92
2022-11-19T02:40:59.912Z,38.86
2022-11-19T02:43:32.420Z,39.00
2022-11-19T02:46:04.550Z,38.91
2022-11-19T02:48:35.732Z,38.82
2022-11-19T02:51:05.014Z,38.90
2022-11-19T02:53:33.705Z,38.71
2022-11-19T02:56:14.075Z,38.70
2022-11-19T02:59:02.829Z,38.86
2022-11-19T03:01:50.435Z,38.88
2022-11-19T03:04:31.281Z,38.97
2022-11-19T03:07:03.647Z,38.67
2022-11-19T03:09:32.664Z,38.70
2022-11-19T03:12:09.897Z,38.76
2022-11-19T03:15:03.270Z,38.63
2022-11-19T03:17:39.732Z,38.67
2022-11-19T03:20:12.771Z,38.64
2022-11-19T03:22:43.649Z,38.72
2022-11-19T03:25:15.786Z,38.69
2022-11-19T03:27:45.672Z,38.83
2022-11-19T03:30:14.937Z,38.57
2022-11-19T03:32:48.135Z,38.59
2022-11-19T03:35:18.871Z,38.54
2022-11-19T03:37:49.919Z,38.45
2022-11-19T03:40:19.346Z,38.65
2022-11-19T03:42:49.315Z,38.54
2022-11-19T03:45:19.853Z,38.65
2022-11-19T03:47:50.589Z,38.47
2022-11-19T03:50:22.864Z,38.49
2022-11-19T03:52:51.327Z,38.58
2022-11-19T03:55:19.896Z,38.46
2022-11-19T03:57:48.430Z,38.53
2022-11-19T04:00:19.114Z,38.50
2022-11-19T04:02:49.345Z,38.54
2022-11-19T04:05:18.014Z,38.47
2022-11-19T04:07:46.528Z,38.52
2022-11-19T04:10:15.344Z,38.36
2022-11-19T04:12:43.851Z,38.41
2022-11-19T04:15:13.080Z,38.47
2022-11-19T04:17:41.668Z,38.31
2022-11-19T04:20:12.885Z,38.42
2022-11-19T04:22:42.359Z,38.33
2022-11-19T04:25:12.663Z,38.34
2022-11-19T04:27:41.519Z,38.24
2022-11-19T04:30:12.089Z,38.47
2022-11-19T04:32:40.795Z,38.38
2022-11-19T04:35:11.227Z,38.27
2022-11-19T04:37:39.974Z,38.20
2022-11-19T04:40:10.384Z,38.12
2022-11-19T04:42:39.101Z,38.23
2022-11-19T04:45:09.505Z,38.26
2022-11-19T04:47:38.191Z,38.12
2022-11-19T04:50:08.163Z,38.14
2022-11-19T04:52:41.155Z,38.08
2022-11-19T04:55:11.738Z,38.05
2022-11-19T04:57:40.342Z,38.11
2022-11-19T05:00:10.493Z,38.02
2022-11-19T05:02:39.005Z,37.97
2022-11-19T05:05:09.270Z,37.99
2022-11-19T05:07:43.150Z,38.11
2022-11-19T05:10:12.022Z,38.08
2022-11-19T05:12:40.573Z,38.00
2022-11-19T05:15:10.750Z,37.98
2022-11-19T05:17:40.141Z,37.95
2022-11-19T05:20:10.683Z,38.00
2022-11-19T05:22:39.172Z,37.93
2022-11-19T05:25:09.982Z,37.94
2022-11-19T05:27:38.458Z,37.97
2022-11-19T05:30:08.971Z,37.92
2022-11-19T05:32:37.465Z,37.89
2022-11-19T05:35:06.757Z,37.89
2022-11-19T05:37:35.280Z,37.80
2022-11-19T05:40:03.923Z,37.92
2022-11-19T05:42:33.833Z,37.81
2022-11-19T05:45:02.436Z,37.88
2022-11-19T05:47:30.898Z,37.74
2022-11-19T05:49:59.515Z,37.82
2022-11-19T05:52:28.056Z,37.83
2022-11-19T05:54:56.679Z,37.69
2022-11-19T05:57:25.139Z,37.90
2022-11-19T05:59:55.084Z,37.74
2022-11-19T06:02:25.542Z,37.83
2022-11-19T06:04:54.197Z,37.80
2022-11-19T06:07:22.740Z,37.71
2022-11-19T06:09:51.276Z,37.72
2022-11-19T06:12:19.726Z,37.66
2022-11-19T06:14:48.330Z,37.73
2022-11-19T06:17:18.138Z,37.62
2022-11-19T06:19:46.709Z,37.71
2022-11-19T06:22:15.160Z,37.59
2022-11-19T06:24:43.646Z,37.62
2022-11-19T06:27:12.491Z,37.77
2022-11-19T06:29:40.926Z,37.55
2022-11-19T06:32:09.518Z,37.57
2022-11-19T06:34:39.520Z,37.61
2022-11-19T06:37:08.319Z,37.56
2022-11-19T06:39:36.771Z,37.60
2022-11-19T06:42:19.527Z,37.55
2022-11-19T06:44:50.572Z,37.77
2022-11-19T06:47:19.155Z,37.61
2022-11-19T06:49:49.126Z,37.47
2022-11-19T06:52:17.759Z,37.51
2022-11-19T06:54:46.610Z,37.48
2022-11-19T06:57:15.237Z,37.50
2022-11-19T06:59:43.834Z,37.41
2022-11-19T07:02:13.974Z,37.57
2022-11-19T07:04:44.781Z,37.53
2022-11-19T07:07:14.664Z,37.48
2022-11-19T07:09:43.302Z,37.54
2022-11-19T07:12:11.847Z,37.46
2022-11-19T07:14:40.278Z,37.49
2022-11-19T07:17:08.809Z,37.41
2022-11-19T07:19:37.391Z,37.27
2022-11-19T07:22:06.023Z,37.31
2022-11-19T07:24:36.102Z,37.33
2022-11-19T07:27:04.687Z,37.40
2022-11-19T07:29:33.222Z,37.56
2022-11-19T07:32:02.477Z,37.55
2022-11-19T07:34:30.941Z,37.66
2022-11-19T07:36:59.549Z,37.66
2022-11-19T07:39:28.008Z,37.74
2022-11-19T07:42:14.861Z,37.62
2022-11-19T07:44:43.435Z,37.69
2022-11-19T07:47:12.271Z,37.70
2022-11-19T07:49:40.783Z,37.72
2022-11-19T07:52:09.422Z,37.91
2022-11-19T07:54:37.954Z,37.83
2022-11-19T07:57:07.867Z,37.80
2022-11-19T07:59:36.563Z,37.85
2022-11-19T08:02:05.136Z,37.75
2022-11-19T08:04:33.828Z,37.74
2022-11-19T08:07:03.228Z,37.75
2022-11-19T08:09:31.792Z,37.75
2022-11-19T08:12:00.801Z,37.71
2022-11-19T08:14:30.695Z,37.67
2022-11-19T08:17:16.481Z,37.71
2022-11-19T08:19:46.528Z,37.79
2022-11-19T08:22:15.496Z,37.75
2022-11-19T08:24:44.031Z,37.78
2022-11-19T08:27:12.988Z,37.88
2022-11-19T08:29:43.012Z,37.93
2022-11-19T08:32:11.609Z,37.88
2022-11-19T08:34:40.187Z,37.93
2022-11-19T08:37:08.791Z,37.79
2022-11-19T08:39:37.334Z,37.83
2022-11-19T08:42:35.328Z,37.99
2022-11-19T08:45:06.941Z,38.39
2022-11-19T08:47:35.434Z,38.29
2022-11-19T08:50:03.984Z,38.13
2022-11-19T08:52:32.418Z,38.08
2022-11-19T08:55:00.947Z,38.16
2022-11-19T08:57:29.483Z,38.22
2022-11-19T09:00:17.675Z,38.35
2022-11-19T09:02:46.194Z,38.34
2022-11-19T09:05:15.009Z,38.00
2022-11-19T09:07:43.557Z,38.50
2022-11-19T09:10:12.213Z,38.58
2022-11-19T09:12:40.772Z,38.54
2022-11-19T09:15:10.683Z,38.37
2022-11-19T09:17:46.397Z,38.52
2022-11-19T09:20:15.716Z,38.34
2022-11-19T09:22:44.220Z,38.52
2022-11-19T09:25:13.116Z,38.56
2022-11-19T09:27:41.666Z,38.44
2022-11-19T09:30:15.282Z,38.25
2022-11-19T09:32:45.252Z,38.25
2022-11-19T09:35:13.953Z,38.63
2022-11-19T09:37:42.466Z,38.72
2022-11-19T09:40:13.213Z,38.63
2022-11-19T09:42:45.050Z,38.28
2022-11-19T09:45:20.592Z,38.48
2022-11-19T09:48:08.971Z,38.38
2022-11-19T09:50:50.401Z,38.89
2022-11-19T09:53:22.555Z,38.39
2022-11-19T09:55:52.818Z,38.27
2022-11-19T09:58:24.440Z,38.49
2022-11-19T10:00:52.958Z,38.45
2022-11-19T10:03:25.455Z,39.24
2022-11-19T10:06:20.985Z,39.05
2022-11-19T10:09:11.735Z,38.95
2022-11-19T10:11:50.700Z,38.81
2022-11-19T10:14:38.230Z,38.98
2022-11-19T10:17:12.316Z,38.85
2022-11-19T10:19:50.688Z,39.07
2022-11-19T10:22:22.928Z,39.03
2022-11-19T10:24:55.413Z,38.84
2022-11-19T10:27:27.363Z,39.45
2022-11-19T10:29:57.722Z,39.44
2022-11-19T10:32:32.778Z,39.27
2022-11-19T10:35:07.725Z,39.17
2022-11-19T10:37:39.914Z,38.84
2022-11-19T10:40:10.299Z,39.11
2022-11-19T10:42:40.753Z,38.95
2022-11-19T10:45:16.565Z,38.99
2022-11-19T10:47:48.754Z,38.73
2022-11-19T10:50:19.426Z,38.73
2022-11-19T10:52:50.919Z,38.88
2022-11-19T10:55:27.635Z,38.81
2022-11-19T10:58:09.786Z,38.58
2022-11-19T11:00:39.558Z,38.60
2022-11-19T11:03:16.768Z,38.65
2022-11-19T11:05:58.522Z,38.46
2022-11-19T11:08:27.159Z,38.63
2022-11-19T11:10:55.892Z,38.68
2022-11-19T11:13:54.278Z,38.58
2022-11-19T11:16:24.590Z,38.46
2022-11-19T11:18:54.172Z,38.42
2022-11-19T11:21:36.813Z,38.34
2022-11-19T11:24:05.983Z,38.44
2022-11-19T11:26:35.128Z,38.38
2022-11-19T11:29:05.418Z,38.34
2022-11-19T11:31:36.814Z,38.41
2022-11-19T11:34:05.753Z,38.47
2022-11-19T11:36:38.094Z,38.34
2022-11-19T11:39:07.441Z,38.25
2022-11-19T11:44:30.154Z,38.26
2022-11-19T11:47:00.082Z,38.19
2022-11-19T11:49:31.705Z,38.28
2022-11-19T11:52:07.381Z,38.13
2022-11-19T11:54:36.471Z,38.03
2022-11-19T11:57:15.981Z,38.09
2022-11-19T11:59:44.592Z,37.99
2022-11-19T12:02:23.271Z,38.10
2022-11-19T12:04:52.540Z,37.71
2022-11-19T12:07:37.907Z,38.01
2022-11-19T12:10:18.380Z,37.82
2022-11-19T12:12:50.321Z,38.04
2022-11-19T12:15:21.875Z,37.92
2022-11-19T12:17:54.079Z,37.96
2022-11-19T12:20:28.380Z,37.96
2022-11-19T12:23:13.732Z,37.98
2022-11-19T12:25:45.552Z,37.88
2022-11-19T12:28:33.579Z,37.68
2022-11-19T12:31:10.366Z,38.36
2022-11-19T12:33:56.243Z,37.55
2022-11-19T12:36:29.939Z,37.81
2022-11-19T12:39:03.544Z,37.90
2022-11-19T12:41:50.223Z,37.76
2022-11-19T12:44:30.784Z,37.98
2022-11-19T12:47:05.043Z,38.14
2022-11-19T12:49:55.274Z,38.00
2022-11-19T12:52:51.443Z,37.56
2022-11-19T12:55:26.597Z,37.77
2022-11-19T12:58:00.199Z,37.74
2022-11-19T13:00:29.349Z,37.80
2022-11-19T13:03:06.766Z,37.66
2022-11-19T13:05:41.224Z,37.62
2022-11-19T13:08:14.890Z,37.43
2022-11-19T13:10:47.903Z,37.78
2022-11-19T13:13:19.984Z,37.80
2022-11-19T13:15:52.520Z,37.81
2022-11-19T13:18:21.154Z,38.04
2022-11-19T13:20:51.854Z,37.63
2022-11-19T13:23:25.412Z,37.82
2022-11-19T13:25:59.027Z,37.66
2022-11-19T13:28:32.327Z,37.82
2022-11-19T13:31:11.148Z,37.70
2022-11-19T13:33:41.756Z,37.69
2022-11-19T13:36:16.780Z,37.52
2022-11-19T13:38:49.706Z,37.52
2022-11-19T13:41:21.928Z,37.56
2022-11-19T13:44:07.510Z,37.20
2022-11-19T13:46:39.623Z,37.39
2022-11-19T13:49:13.010Z,36.23
2022-11-19T13:51:44.651Z,36.49
2022-11-19T13:54:23.151Z,36.76
2022-11-19T13:56:54.614Z,36.87
2022-11-19T13:59:32.940Z,36.79
2022-11-19T14:02:17.136Z,36.89
2022-11-19T14:05:21.913Z,37.19
2022-11-19T14:08:06.843Z,37.29
2022-11-19T14:10:39.227Z,37.23
2022-11-19T14:13:32.063Z,37.37
2022-11-19T14:16:33.473Z,37.41
2022-11-19T14:19:35.866Z,37.58
2022-11-19T14:22:52.573Z,37.58
2022-11-19T14:26:02.632Z,37.85
2022-11-19T14:28:48.607Z,38.06
2022-11-19T14:31:19.622Z,37.86
2022-11-19T14:34:04.382Z,38.63
2022-11-19T14:36:46.019Z,38.65
2022-11-19T14:39:19.464Z,38.28
2022-11-19T14:41:48.236Z,38.06
2022-11-19T14:44:37.468Z,38.13
2022-11-19T14:47:34.000Z,38.52
2022-11-19T14:50:05.424Z,38.25
2022-11-19T14:52:36.218Z,38.36
2022-11-19T14:55:07.070Z,38.22
2022-11-19T14:57:36.646Z,38.61
2022-11-19T15:00:18.501Z,38.46
2022-11-19T15:02:48.926Z,38.62
2022-11-19T15:05:20.289Z,38.38
2022-11-19T15:07:55.578Z,38.64
2022-11-19T15:10:34.064Z,38.88
2022-11-19T15:13:21.220Z,38.71
2022-11-19T15:15:56.638Z,38.87
2022-11-19T15:19:23.166Z,38.85
2022-11-19T15:22:23.366Z,38.62
2022-11-19T15:25:15.284Z,38.47
2022-11-19T15:27:57.599Z,38.14
2022-11-19T15:30:29.717Z,38.51
2022-11-19T15:33:34.605Z,38.59
2022-11-19T15:36:31.476Z,38.50
2022-11-19T15:39:04.428Z,38.41
2022-11-19T15:41:39.648Z,38.18
2022-11-19T15:44:10.153Z,38.89
2022-11-19T15:46:42.326Z,38.65
2022-11-19T15:49:17.621Z,38.62
2022-11-19T15:51:58.086Z,38.56
2022-11-19T15:54:29.775Z,38.57
2022-11-19T15:57:02.641Z,38.40
2022-11-19T15:59:32.046Z,38.56
2022-11-19T16:02:02.198Z,38.24
2022-11-19T16:04:36.647Z,38.36
2022-11-19T16:07:06.058Z,38.31
2022-11-19T16:09:34.607Z,38.32
2022-11-19T16:12:20.711Z,38.26
2022-11-19T16:15:09.789Z,38.26
2022-11-19T16:17:44.349Z,38.28
2022-11-19T16:20:21.771Z,38.50
2022-11-19T16:22:55.857Z,38.39
2022-11-19T16:25:34.288Z,38.40
2022-11-19T16:28:05.704Z,38.35
2022-11-19T16:30:46.432Z,38.41
2022-11-19T16:33:18.801Z,38.22
2022-11-19T16:35:52.807Z,38.31
2022-11-19T16:38:28.090Z,38.24
2022-11-19T16:41:21.361Z,38.32
2022-11-19T16:44:12.608Z,38.09
2022-11-19T16:47:03.076Z,38.21
2022-11-19T16:50:03.085Z,38.23
2022-11-19T16:52:50.132Z,38.11
2022-11-19T16:55:44.078Z,38.23
2022-11-19T16:58:32.440Z,38.21
2022-11-19T17:01:22.024Z,38.16
2022-11-19T17:04:04.974Z,38.13
2022-11-19T17:06:53.352Z,38.02
2022-11-19T17:09:44.738Z,37.98
2022-11-19T17:12:27.555Z,38.39
2022-11-19T17:15:00.112Z,38.05
2022-11-19T17:17:41.077Z,37.84
2022-11-19T17:21:01.981Z,37.95
2022-11-19T17:23:32.069Z,38.18
2022-11-19T17:26:03.232Z,38.08
2022-11-19T17:28:38.276Z,37.88
2022-11-19T17:31:08.589Z,38.14
2022-11-19T17:33:37.238Z,38.03
2022-11-19T17:36:06.403Z,37.92
2022-11-19T17:38:34.879Z,38.03
2022-11-19T17:41:05.213Z,37.87
2022-11-19T17:43:52.581Z,37.88
2022-11-19T17:46:21.241Z,37.82
2022-11-19T17:48:50.190Z,37.91
2022-11-19T17:51:19.836Z,37.97
2022-11-19T17:53:49.457Z,38.01
2022-11-19T17:56:20.867Z,37.98
2022-11-19T17:58:49.420Z,37.78
2022-11-19T18:01:18.194Z,37.84
2022-11-19T18:03:46.732Z,37.82
2022-11-19T18:06:17.006Z,37.74
2022-11-19T18:08:45.551Z,37.73
2022-11-19T18:11:14.870Z,37.67
2022-11-19T18:13:45.019Z,37.74
2022-11-19T18:16:15.135Z,37.82
2022-11-19T18:18:43.654Z,37.68
2022-11-19T18:21:13.360Z,37.75
2022-11-19T18:23:42.040Z,37.41
2022-11-19T18:26:11.719Z,37.40
2022-11-19T18:28:42.557Z,37.66
2022-11-19T18:31:17.549Z,37.63
2022-11-19T18:33:48.023Z,37.94
2022-11-19T18:36:18.698Z,37.84
2022-11-19T18:38:47.390Z,37.80
2022-11-19T18:41:16.345Z,37.93
2022-11-19T18:44:02.380Z,37.92
2022-11-19T18:46:32.259Z,38.07
2022-11-19T18:49:00.733Z,37.66
2022-11-19T18:51:30.660Z,37.81
2022-11-19T18:53:59.190Z,37.81
2022-11-19T18:56:27.734Z,37.79
2022-11-19T18:58:59.193Z,37.79
2022-11-19T19:01:33.239Z,38.01
2022-11-19T19:04:02.152Z,37.99
2022-11-19T19:06:30.762Z,37.98
2022-11-19T19:08:59.441Z,38.01
2022-11-19T19:11:45.636Z,38.01
2022-11-19T19:14:15.102Z,38.09
2022-11-19T19:16:45.104Z,38.20
2022-11-19T19:19:18.306Z,38.51
2022-11-19T19:21:47.487Z,38.53
2022-11-19T19:24:16.030Z,38.78
2022-11-19T19:26:44.529Z,38.63
2022-11-19T19:29:13.113Z,38.61
2022-11-19T19:31:41.584Z,38.67
2022-11-19T19:34:11.553Z,38.52
2022-11-19T19:36:39.999Z,38.63
2022-11-19T19:39:08.570Z,38.54
2022-11-19T19:41:37.363Z,38.45
2022-11-19T19:44:07.190Z,38.50
2022-11-19T19:46:35.934Z,38.43
2022-11-19T19:49:04.479Z,38.32
2022-11-19T19:51:34.468Z,38.06
2022-11-19T19:54:03.074Z,37.98
2022-11-19T19:56:32.629Z,37.97
2022-11-19T19:59:01.483Z,37.91
2022-11-19T20:01:31.009Z,37.82
2022-11-19T20:04:02.135Z,37.82
2022-11-19T20:06:30.782Z,37.92
2022-11-19T20:09:04.361Z,37.94
2022-11-19T20:11:35.510Z,37.88
2022-11-19T20:14:04.048Z,38.01
2022-11-19T20:16:33.428Z,37.69
2022-11-19T20:19:02.525Z,37.85
2022-11-19T20:21:34.040Z,37.78
2022-11-19T20:24:10.391Z,37.71
2022-11-19T20:26:40.823Z,37.81
2022-11-19T20:29:09.981Z,37.56
2022-11-19T20:31:40.503Z,37.53
2022-11-19T20:34:09.062Z,37.71
2022-11-19T20:36:37.760Z,37.68
2022-11-19T20:39:07.906Z,37.58
2022-11-19T20:41:54.599Z,37.72
2022-11-19T20:44:23.409Z,37.91
2022-11-19T20:46:54.637Z,37.71
2022-11-19T20:49:25.732Z,37.74
2022-11-19T20:51:54.725Z,37.76
2022-11-19T20:54:24.635Z,37.72
2022-11-19T20:56:54.159Z,37.69
2022-11-19T20:59:23.002Z,37.66
2022-11-19T21:01:51.945Z,37.73
2022-11-19T21:04:20.651Z,37.53
2022-11-19T21:06:49.995Z,37.60
2022-11-19T21:09:19.674Z,37.71
2022-11-19T21:11:51.160Z,37.48
2022-11-19T21:14:20.114Z,37.62
2022-11-19T21:16:48.604Z,37.64
2022-11-19T21:19:17.063Z,37.51
2022-11-19T21:21:45.749Z,37.44
2022-11-19T21:24:14.538Z,37.46
2022-11-19T21:26:43.216Z,37.61
2022-11-19T21:29:13.142Z,37.54
2022-11-19T21:31:44.334Z,37.71
2022-11-19T21:34:14.071Z,37.46
2022-11-19T21:36:43.045Z,37.57
2022-11-19T21:39:11.936Z,37.67
2022-11-19T21:41:40.511Z,37.58
2022-11-19T21:44:09.011Z,37.75
2022-11-19T21:46:38.829Z,37.64
2022-11-19T21:49:07.311Z,37.59
2022-11-19T21:51:35.808Z,37.74
2022-11-19T21:54:04.347Z,37.71
2022-11-19T21:56:38.225Z,37.60
2022-11-19T21:59:07.901Z,37.66
2022-11-19T22:01:37.850Z,37.72
2022-11-19T22:04:06.848Z,37.72
2022-11-19T22:06:35.336Z,37.55
2022-11-19T22:09:05.327Z,37.52
2022-11-19T22:11:33.819Z,37.50
2022-11-19T22:14:03.850Z,37.66
2022-11-19T22:16:33.407Z,37.65
2022-11-19T22:19:03.456Z,37.61
2022-11-19T22:21:31.935Z,37.39
2022-11-19T22:24:01.149Z,37.32
2022-11-19T22:26:29.652Z,37.31
2022-11-19T22:28:58.270Z,37.34
2022-11-19T22:31:26.752Z,37.49
2022-11-19T22:33:55.645Z,37.40
2022-11-19T22:36:25.554Z,37.38
2022-11-19T22:38:54.052Z,37.58
2022-11-19T22:41:22.749Z,37.44
2022-11-19T22:43:51.548Z,37.59
2022-11-19T22:46:20.273Z,37.46
2022-11-19T22:48:49.343Z,37.33
2022-11-19T22:51:18.826Z,37.42
2022-11-19T22:53:48.807Z,37.44
2022-11-19T22:56:20.663Z,37.48
2022-11-19T22:58:49.978Z,37.42
2022-11-19T23:01:19.763Z,37.49
2022-11-19T23:03:48.414Z,37.36
2022-11-19T23:06:17.028Z,37.54
2022-11-19T23:08:45.736Z,37.56
2022-11-19T23:11:16.507Z,37.55
2022-11-19T23:13:44.586Z,37.43
2022-11-19T23:16:15.144Z,37.51
2022-11-19T23:18:47.016Z,37.51
2022-11-19T23:21:17.158Z,37.73
2022-11-19T23:23:45.742Z,37.51
2022-11-19T23:26:18.857Z,37.51
2022-11-19T23:28:50.445Z,37.47
2022-11-19T23:31:20.571Z,37.50
2022-11-19T23:33:50.746Z,37.34
2022-11-19T23:36:22.928Z,37.47
2022-11-19T23:38:51.550Z,37.37
2022-11-19T23:41:21.983Z,37.29
2022-11-19T23:43:51.238Z,37.32
2022-11-19T23:46:21.395Z,37.34
2022-11-19T23:48:50.335Z,37.51
2022-11-19T23:51:20.091Z,37.38
2022-11-19T23:53:48.643Z,37.56
2022-11-19T23:56:17.735Z,37.32
2022-11-19T23:58:47.512Z,37.32
